ASA284 KLAX-KEWR
Flight info
| Callsign | ASA284 |
|---|---|
| Flight time | N/A |
| Altitude | 35000 |
| Route | OSHNN1 BEALE J146 DVC HBU MCK OVR DSM EVOTE NELLS KEEHO J584 SLT FQM3 |
| Aircraft | B738/M-SDE2E3FGHIRWXY/LB1 |
Departure
| Time | N/A |
|---|---|
| Airport | Los Angeles International Airport (KLAX) |
Arrival
| Time | 2026-04-26 09:50 |
|---|---|
| Airport | Newark Liberty International Airport (KEWR) |
| Time | Latitude | Longitude | Altitude | Speed | Heading |
|---|---|---|---|---|---|
| 2026-04-26 08:47 | 41.93487 | -83.48678 | 35122 ft | 475 kts | 89° |
| 2026-04-26 08:48 | 41.93427 | -83.39812 | 35139 ft | 475 kts | 88° |
| 2026-04-26 08:48 | 41.93411 | -83.30950 | 35139 ft | 475 kts | 88° |
| 2026-04-26 08:49 | 41.93381 | -83.22057 | 35138 ft | 476 kts | 89° |
| 2026-04-26 08:49 | 41.93334 | -83.13199 | 35136 ft | 476 kts | 89° |
| 2026-04-26 08:50 | 41.93275 | -83.04297 | 35132 ft | 476 kts | 89° |
| 2026-04-26 08:50 | 41.93210 | -82.95414 | 35133 ft | 476 kts | 89° |
| 2026-04-26 08:51 | 41.93099 | -82.82099 | 35130 ft | 476 kts | 89° |
| 2026-04-26 08:52 | 41.93017 | -82.73189 | 35129 ft | 477 kts | 89° |
| 2026-04-26 08:52 | 41.92928 | -82.64254 | 35134 ft | 477 kts | 89° |
| 2026-04-26 08:53 | 41.92832 | -82.55410 | 35137 ft | 477 kts | 89° |
| 2026-04-26 08:53 | 41.92729 | -82.46473 | 35136 ft | 477 kts | 89° |
| 2026-04-26 08:54 | 41.92620 | -82.37608 | 35144 ft | 477 kts | 89° |
| 2026-04-26 08:54 | 41.92504 | -82.28710 | 35136 ft | 477 kts | 89° |
| 2026-04-26 08:55 | 41.92380 | -82.19771 | 35141 ft | 477 kts | 89° |
| 2026-04-26 08:55 | 41.92250 | -82.10867 | 35137 ft | 478 kts | 89° |
| 2026-04-26 08:56 | 41.92112 | -82.01925 | 35147 ft | 478 kts | 89° |
| 2026-04-26 08:56 | 41.91969 | -81.93035 | 35142 ft | 478 kts | 89° |
| 2026-04-26 08:57 | 41.91818 | -81.84136 | 35142 ft | 478 kts | 89° |
| 2026-04-26 08:57 | 41.91268 | -81.75261 | 35144 ft | 479 kts | 95° |
| 2026-04-26 08:58 | 41.90400 | -81.66372 | 35138 ft | 479 kts | 95° |
| 2026-04-26 08:58 | 41.89536 | -81.57477 | 35137 ft | 479 kts | 95° |
| 2026-04-26 08:59 | 41.88720 | -81.48633 | 35125 ft | 479 kts | 94° |
| 2026-04-26 08:59 | 41.87912 | -81.39722 | 35128 ft | 479 kts | 94° |
| 2026-04-26 09:00 | 41.87103 | -81.30876 | 35123 ft | 479 kts | 95° |
| 2026-04-26 09:00 | 41.86280 | -81.21978 | 35129 ft | 479 kts | 94° |
| 2026-04-26 09:01 | 41.85455 | -81.13136 | 35121 ft | 480 kts | 94° |
| 2026-04-26 09:01 | 41.84622 | -81.04296 | 35117 ft | 480 kts | 95° |
| 2026-04-26 09:02 | 41.83777 | -80.95396 | 35111 ft | 480 kts | 95° |
| 2026-04-26 09:02 | 41.82926 | -80.86502 | 35114 ft | 480 kts | 95° |
| 2026-04-26 09:03 | 41.82073 | -80.77664 | 35103 ft | 481 kts | 95° |
| 2026-04-26 09:03 | 41.81206 | -80.68752 | 35108 ft | 481 kts | 95° |
| 2026-04-26 09:04 | 41.80336 | -80.59874 | 35103 ft | 481 kts | 95° |
| 2026-04-26 09:04 | 41.79456 | -80.51006 | 35106 ft | 482 kts | 95° |
| 2026-04-26 09:05 | 41.78562 | -80.42100 | 35093 ft | 482 kts | 95° |
| 2026-04-26 09:05 | 41.77663 | -80.33199 | 35099 ft | 482 kts | 95° |
| 2026-04-26 09:06 | 41.76759 | -80.24313 | 35101 ft | 483 kts | 95° |
| 2026-04-26 09:06 | 41.75845 | -80.15395 | 35098 ft | 483 kts | 95° |
| 2026-04-26 09:07 | 41.74922 | -80.06460 | 35096 ft | 483 kts | 95° |
| 2026-04-26 09:07 | 41.73998 | -79.97581 | 35088 ft | 483 kts | 95° |
| 2026-04-26 09:08 | 41.73063 | -79.88672 | 35096 ft | 484 kts | 95° |
| 2026-04-26 09:08 | 41.72124 | -79.79783 | 35094 ft | 484 kts | 95° |
| 2026-04-26 09:09 | 41.71173 | -79.70856 | 35079 ft | 484 kts | 96° |
| 2026-04-26 09:09 | 41.70218 | -79.61955 | 35078 ft | 484 kts | 96° |
| 2026-04-26 09:10 | 41.69250 | -79.53001 | 35076 ft | 484 kts | 96° |
| 2026-04-26 09:10 | 41.68280 | -79.44092 | 35078 ft | 485 kts | 96° |
| 2026-04-26 09:11 | 41.67299 | -79.35141 | 35080 ft | 485 kts | 96° |
| 2026-04-26 09:11 | 41.66316 | -79.26238 | 35066 ft | 486 kts | 96° |
| 2026-04-26 09:12 | 41.65324 | -79.17328 | 35069 ft | 486 kts | 96° |
| 2026-04-26 09:12 | 41.64324 | -79.08372 | 35069 ft | 486 kts | 96° |
| 2026-04-26 09:13 | 41.63323 | -78.99460 | 35064 ft | 486 kts | 97° |
| 2026-04-26 09:13 | 41.62308 | -78.90485 | 35074 ft | 487 kts | 97° |
| 2026-04-26 09:14 | 41.61293 | -78.81580 | 35071 ft | 487 kts | 97° |
| 2026-04-26 09:14 | 41.60262 | -78.72587 | 35081 ft | 488 kts | 97° |
| 2026-04-26 09:15 | 41.59229 | -78.63650 | 35083 ft | 488 kts | 98° |
| 2026-04-26 09:15 | 41.58189 | -78.54712 | 35082 ft | 488 kts | 98° |
| 2026-04-26 09:16 | 41.57134 | -78.45711 | 35082 ft | 489 kts | 98° |
| 2026-04-26 09:16 | 41.56079 | -78.36770 | 35082 ft | 489 kts | 98° |
| 2026-04-26 09:17 | 41.55011 | -78.27779 | 35084 ft | 489 kts | 98° |
| 2026-04-26 09:17 | 41.53942 | -78.18842 | 35086 ft | 489 kts | 98° |
| 2026-04-26 09:18 | 41.52866 | -78.09906 | 35088 ft | 490 kts | 98° |
| 2026-04-26 09:18 | 41.51774 | -78.00892 | 35094 ft | 489 kts | 98° |
| 2026-04-26 09:19 | 41.50643 | -77.91973 | 35094 ft | 489 kts | 100° |
| 2026-04-26 09:19 | 41.49372 | -77.83073 | 35102 ft | 489 kts | 101° |
| 2026-04-26 09:20 | 41.48072 | -77.74140 | 35103 ft | 490 kts | 101° |
| 2026-04-26 09:20 | 41.46785 | -77.65213 | 35111 ft | 490 kts | 100° |
| 2026-04-26 09:21 | 41.45508 | -77.56330 | 35105 ft | 490 kts | 101° |
| 2026-04-26 09:21 | 41.44216 | -77.47383 | 35112 ft | 490 kts | 101° |
| 2026-04-26 09:22 | 41.42918 | -77.38453 | 35108 ft | 491 kts | 101° |
| 2026-04-26 09:22 | 41.41616 | -77.29552 | 35108 ft | 491 kts | 101° |
| 2026-04-26 09:23 | 41.40307 | -77.20653 | 35101 ft | 491 kts | 101° |
| 2026-04-26 09:23 | 41.38985 | -77.11716 | 35113 ft | 491 kts | 101° |
| 2026-04-26 09:24 | 41.37661 | -77.02808 | 35115 ft | 492 kts | 101° |
| 2026-04-26 09:24 | 41.36320 | -76.93846 | 35110 ft | 492 kts | 101° |
| 2026-04-26 09:25 | 41.34979 | -76.84922 | 35115 ft | 492 kts | 101° |
| 2026-04-26 09:25 | 41.33577 | -76.75962 | 35100 ft | 493 kts | 105° |
| 2026-04-26 09:26 | 41.31403 | -76.67369 | 35116 ft | 492 kts | 112° |
| 2026-04-26 09:26 | 41.30169 | -76.63109 | 34864 ft | 495 kts | 112° |
| 2026-04-26 09:26 | 41.28932 | -76.58810 | 34255 ft | 497 kts | 111° |
| 2026-04-26 09:26 | 41.27721 | -76.54494 | 33527 ft | 497 kts | 111° |
| 2026-04-26 09:27 | 41.26554 | -76.50232 | 32818 ft | 497 kts | 110° |
| 2026-04-26 09:27 | 41.25387 | -76.45904 | 32101 ft | 496 kts | 111° |
| 2026-04-26 09:27 | 41.24221 | -76.41559 | 31356 ft | 496 kts | 111° |
| 2026-04-26 09:27 | 41.23071 | -76.37278 | 30621 ft | 496 kts | 111° |
| 2026-04-26 09:28 | 41.21904 | -76.32950 | 30018 ft | 493 kts | 111° |
| 2026-04-26 09:28 | 41.20748 | -76.28672 | 29399 ft | 488 kts | 111° |
| 2026-04-26 09:28 | 41.19616 | -76.24501 | 28848 ft | 481 kts | 110° |
| 2026-04-26 09:28 | 41.18481 | -76.20326 | 28294 ft | 475 kts | 110° |
| 2026-04-26 09:29 | 41.17359 | -76.16211 | 27743 ft | 470 kts | 110° |
| 2026-04-26 09:29 | 41.16262 | -76.12193 | 27209 ft | 465 kts | 110° |
| 2026-04-26 09:29 | 41.15160 | -76.08159 | 26665 ft | 461 kts | 109° |
| 2026-04-26 09:29 | 41.14069 | -76.04172 | 26126 ft | 456 kts | 109° |
| 2026-04-26 09:30 | 41.12987 | -76.00231 | 25594 ft | 452 kts | 109° |
| 2026-04-26 09:30 | 41.12270 | -75.97624 | 25238 ft | 450 kts | 109° |
| 2026-04-26 09:30 | 41.11216 | -75.93793 | 24742 ft | 446 kts | 108° |
| 2026-04-26 09:30 | 41.09795 | -75.88640 | 24059 ft | 441 kts | 108° |
| 2026-04-26 09:31 | 41.09098 | -75.86113 | 23709 ft | 439 kts | 108° |
| 2026-04-26 09:31 | 41.08050 | -75.82320 | 23112 ft | 435 kts | 107° |
| 2026-04-26 09:31 | 41.07024 | -75.78610 | 22559 ft | 431 kts | 107° |
| 2026-04-26 09:31 | 41.05990 | -75.74875 | 22048 ft | 427 kts | 108° |
| 2026-04-26 09:32 | 41.04642 | -75.70016 | 21339 ft | 421 kts | 107° |
| 2026-04-26 09:32 | 41.03958 | -75.67553 | 20979 ft | 419 kts | 107° |
| 2026-04-26 09:32 | 41.02969 | -75.63991 | 20488 ft | 415 kts | 107° |
| 2026-04-26 09:32 | 41.01971 | -75.60407 | 19977 ft | 412 kts | 107° |
| 2026-04-26 09:33 | 41.00980 | -75.56857 | 19480 ft | 409 kts | 106° |
| 2026-04-26 09:33 | 40.99994 | -75.53330 | 18986 ft | 406 kts | 106° |
| 2026-04-26 09:33 | 40.99014 | -75.49829 | 18494 ft | 404 kts | 105° |
| 2026-04-26 09:33 | 40.98050 | -75.46389 | 17942 ft | 402 kts | 105° |
| 2026-04-26 09:34 | 40.97078 | -75.42918 | 17409 ft | 399 kts | 105° |
| 2026-04-26 09:34 | 40.96109 | -75.39464 | 16903 ft | 396 kts | 107° |
| 2026-04-26 09:34 | 40.95166 | -75.36106 | 16410 ft | 393 kts | 107° |
| 2026-04-26 09:34 | 40.94211 | -75.32712 | 15922 ft | 390 kts | 107° |
| 2026-04-26 09:35 | 40.93268 | -75.29363 | 15431 ft | 387 kts | 107° |
| 2026-04-26 09:35 | 40.92337 | -75.26061 | 14897 ft | 386 kts | 107° |
| 2026-04-26 09:35 | 40.91281 | -75.22775 | 14201 ft | 392 kts | 114° |
| 2026-04-26 09:35 | 40.89992 | -75.19584 | 13617 ft | 391 kts | 116° |
| 2026-04-26 09:36 | 40.88661 | -75.16435 | 13045 ft | 389 kts | 117° |
| 2026-04-26 09:36 | 40.87358 | -75.13370 | 12537 ft | 385 kts | 117° |
| 2026-04-26 09:36 | 40.86054 | -75.10288 | 12033 ft | 380 kts | 117° |
| 2026-04-26 09:36 | 40.84787 | -75.07266 | 11548 ft | 376 kts | 117° |
| 2026-04-26 09:37 | 40.83531 | -75.04248 | 11061 ft | 372 kts | 118° |
| 2026-04-26 09:37 | 40.82299 | -75.01278 | 10803 ft | 362 kts | 118° |
| 2026-04-26 09:37 | 40.81107 | -74.98399 | 10640 ft | 350 kts | 118° |
| 2026-04-26 09:37 | 40.79971 | -74.95654 | 10490 ft | 339 kts | 118° |
| 2026-04-26 09:38 | 40.78857 | -74.92961 | 10353 ft | 329 kts | 119° |
| 2026-04-26 09:38 | 40.77772 | -74.90342 | 10189 ft | 319 kts | 119° |
| 2026-04-26 09:38 | 40.76722 | -74.87807 | 10066 ft | 310 kts | 119° |
| 2026-04-26 09:38 | 40.75714 | -74.85376 | 9992 ft | 299 kts | 119° |
| 2026-04-26 09:39 | 40.74730 | -74.83006 | 9724 ft | 294 kts | 119° |
| 2026-04-26 09:39 | 40.73733 | -74.80609 | 9301 ft | 297 kts | 119° |
| 2026-04-26 09:39 | 40.72738 | -74.78218 | 8937 ft | 298 kts | 119° |
| 2026-04-26 09:39 | 40.71750 | -74.75844 | 8637 ft | 296 kts | 119° |
| 2026-04-26 09:40 | 40.70761 | -74.73471 | 8307 ft | 290 kts | 119° |
| 2026-04-26 09:40 | 40.69811 | -74.71191 | 8010 ft | 281 kts | 118° |
| 2026-04-26 09:40 | 40.68889 | -74.68982 | 7721 ft | 274 kts | 118° |
| 2026-04-26 09:40 | 40.67967 | -74.66774 | 7461 ft | 273 kts | 118° |
| 2026-04-26 09:41 | 40.67064 | -74.64612 | 7194 ft | 271 kts | 118° |
| 2026-04-26 09:41 | 40.66153 | -74.62432 | 6922 ft | 270 kts | 117° |
| 2026-04-26 09:41 | 40.65243 | -74.60258 | 6646 ft | 269 kts | 117° |
| 2026-04-26 09:41 | 40.64351 | -74.58126 | 6367 ft | 268 kts | 117° |
| 2026-04-26 09:42 | 40.63452 | -74.55980 | 6082 ft | 266 kts | 117° |
| 2026-04-26 09:42 | 40.62557 | -74.53846 | 5788 ft | 265 kts | 117° |
| 2026-04-26 09:42 | 40.61680 | -74.51755 | 5512 ft | 263 kts | 116° |
| 2026-04-26 09:42 | 40.60796 | -74.49647 | 5233 ft | 261 kts | 117° |
| 2026-04-26 09:43 | 40.59924 | -74.47571 | 4981 ft | 259 kts | 117° |
| 2026-04-26 09:43 | 40.59051 | -74.45495 | 4725 ft | 257 kts | 117° |
| 2026-04-26 09:43 | 40.58187 | -74.43440 | 4455 ft | 255 kts | 117° |
| 2026-04-26 09:43 | 40.57341 | -74.41429 | 4178 ft | 252 kts | 117° |
| 2026-04-26 09:44 | 40.56511 | -74.39460 | 4051 ft | 238 kts | 117° |
| 2026-04-26 09:44 | 40.55739 | -74.37629 | 3934 ft | 223 kts | 117° |
| 2026-04-26 09:44 | 40.55003 | -74.35885 | 3824 ft | 210 kts | 117° |
| 2026-04-26 09:44 | 40.54323 | -74.34276 | 3738 ft | 196 kts | 116° |
| 2026-04-26 09:45 | 40.53684 | -74.32766 | 3684 ft | 180 kts | 116° |
| 2026-04-26 09:45 | 40.53095 | -74.31375 | 3622 ft | 168 kts | 116° |
| 2026-04-26 09:45 | 40.52609 | -74.30027 | 3463 ft | 159 kts | 98° |
| 2026-04-26 09:45 | 40.52642 | -74.28615 | 3348 ft | 158 kts | 73° |
| 2026-04-26 09:46 | 40.53343 | -74.27534 | 3188 ft | 160 kts | 39° |
| 2026-04-26 09:46 | 40.54262 | -74.26711 | 3059 ft | 159 kts | 37° |
| 2026-04-26 09:46 | 40.55183 | -74.25939 | 2927 ft | 155 kts | 37° |
| 2026-04-26 09:46 | 40.56115 | -74.25231 | 2737 ft | 158 kts | 32° |
| 2026-04-26 09:47 | 40.57095 | -74.24585 | 2517 ft | 155 kts | 31° |
| 2026-04-26 09:47 | 40.58061 | -74.23969 | 2283 ft | 150 kts | 30° |
| 2026-04-26 09:47 | 40.58974 | -74.23388 | 2115 ft | 147 kts | 29° |
| 2026-04-26 09:47 | 40.59891 | -74.22805 | 1911 ft | 143 kts | 28° |
| 2026-04-26 09:48 | 40.60773 | -74.22245 | 1703 ft | 138 kts | 28° |
| 2026-04-26 09:48 | 40.61638 | -74.21694 | 1529 ft | 140 kts | 29° |
| 2026-04-26 09:48 | 40.62497 | -74.21148 | 1363 ft | 135 kts | 29° |
| 2026-04-26 09:48 | 40.63327 | -74.20620 | 1151 ft | 129 kts | 28° |
| 2026-04-26 09:49 | 40.64142 | -74.20101 | 971 ft | 132 kts | 27° |
| 2026-04-26 09:49 | 40.64977 | -74.19571 | 796 ft | 134 kts | 29° |
| 2026-04-26 09:49 | 40.65824 | -74.19031 | 598 ft | 135 kts | 28° |
| 2026-04-26 09:49 | 40.66658 | -74.18499 | 412 ft | 135 kts | 26° |
| 2026-04-26 09:50 | 40.67489 | -74.17972 | 215 ft | 130 kts | 27° |
| 2026-04-26 09:50 | 40.68307 | -74.17455 | 34 ft | 130 kts | 26° |
| 2026-04-26 09:50 | 40.69014 | -74.17007 | 21 ft | 71 kts | 26° |
| 2026-04-26 09:50 | 40.69267 | -74.16877 | 21 ft | 24 kts | 11° |
| 2026-04-26 09:51 | 40.69402 | -74.16870 | 22 ft | 17 kts | 357° |
| 2026-04-26 09:51 | 40.69491 | -74.16889 | 21 ft | 12 kts | 324° |
| 2026-04-26 09:51 | 40.69527 | -74.16959 | 21 ft | 6 kts | 298° |
| 2026-04-26 09:51 | 40.69532 | -74.17011 | 21 ft | 6 kts | 259° |
| 2026-04-26 09:52 | 40.69525 | -74.17055 | 21 ft | 4 kts | 244° |
| 2026-04-26 09:52 | 40.69396 | -74.17069 | 21 ft | 20 kts | 184° |
| 2026-04-26 09:52 | 40.69243 | -74.17141 | 21 ft | 25 kts | 205° |
| 2026-04-26 09:53 | 40.69091 | -74.17235 | 21 ft | 23 kts | 209° |
| 2026-04-26 09:53 | 40.68952 | -74.17329 | 22 ft | 22 kts | 204° |
| 2026-04-26 09:53 | 40.68831 | -74.17404 | 21 ft | 7 kts | 205° |
| 2026-04-26 09:53 | 40.68827 | -74.17406 | 21 ft | 2 kts | 205° |
| 2026-04-26 09:54 | 40.68798 | -74.17424 | 21 ft | 7 kts | 205° |
| 2026-04-26 09:54 | 40.68743 | -74.17458 | 21 ft | 11 kts | 206° |
| 2026-04-26 09:54 | 40.68663 | -74.17510 | 21 ft | 14 kts | 206° |
| 2026-04-26 09:54 | 40.68608 | -74.17592 | 21 ft | 12 kts | 292° |
| 2026-04-26 09:55 | 40.68645 | -74.17692 | 21 ft | 12 kts | 284° |
| 2026-04-26 09:55 | 40.68664 | -74.17780 | 24 ft | 6 kts | 302° |
| 2026-04-26 09:55 | 40.68695 | -74.17785 | 21 ft | 1 kts | 36° |
| 2026-04-26 09:55 | 40.68699 | -74.17780 | 21 ft | 1 kts | 51° |
| 2026-04-26 09:56 | 40.68701 | -74.17772 | 21 ft | 2 kts | 65° |
| 2026-04-26 09:56 | 40.68720 | -74.17748 | 22 ft | 5 kts | 32° |
| 2026-04-26 09:56 | 40.68739 | -74.17734 | 22 ft | 1 kts | 30° |
| 2026-04-26 09:56 | 40.68740 | -74.17734 | 22 ft | 0 kts | 30° |